sensor_id;sensor_type;location;lat;lon;timestamp;pressure;altitude;pressure_sealevel;temperature;humidity
37238;BME280;23129;49.662;8.448;2023-05-09T00:00:48;100974.41;;;17.25;100.00
37238;BME280;23129;49.662;8.448;2023-05-09T00:03:16;100968.22;;;17.26;100.00
37238;BME280;23129;49.662;8.448;2023-05-09T00:05:46;100967.25;;;17.27;100.00
37238;BME280;23129;49.662;8.448;2023-05-09T00:08:14;100970.84;;;17.26;100.00
37238;BME280;23129;49.662;8.448;2023-05-09T00:10:43;100969.13;;;17.25;100.00
37238;BME280;23129;49.662;8.448;2023-05-09T00:13:11;100962.91;;;17.26;100.00
37238;BME280;23129;49.662;8.448;2023-05-09T00:15:40;100963.81;;;17.25;100.00
37238;BME280;23129;49.662;8.448;2023-05-09T00:18:10;100952.31;;;17.26;100.00
37238;BME280;23129;49.662;8.448;2023-05-09T00:20:39;100958.50;;;17.25;100.00
37238;BME280;23129;49.662;8.448;2023-05-09T00:23:09;100948.75;;;17.26;100.00
37238;BME280;23129;49.662;8.448;2023-05-09T00:25:37;100942.75;;;17.22;100.00
37238;BME280;23129;49.662;8.448;2023-05-09T00:28:06;100950.00;;;17.19;100.00
37238;BME280;23129;49.662;8.448;2023-05-09T00:30:34;100944.78;;;17.17;100.00
37238;BME280;23129;49.662;8.448;2023-05-09T00:33:03;100946.63;;;17.15;100.00
37238;BME280;23129;49.662;8.448;2023-05-09T00:35:32;100950.22;;;17.14;100.00
37238;BME280;23129;49.662;8.448;2023-05-09T00:38:01;100939.75;;;17.11;100.00
37238;BME280;23129;49.662;8.448;2023-05-09T00:40:30;100935.47;;;17.08;100.00
37238;BME280;23129;49.662;8.448;2023-05-09T00:42:59;100941.78;;;17.06;100.00
37238;BME280;23129;49.662;8.448;2023-05-09T00:45:27;100944.56;;;17.03;100.00
37238;BME280;23129;49.662;8.448;2023-05-09T00:47:56;100938.47;;;17.01;100.00
37238;BME280;23129;49.662;8.448;2023-05-09T00:50:25;100937.63;;;17.00;100.00
37238;BME280;23129;49.662;8.448;2023-05-09T00:52:53;100935.03;;;16.99;100.00
37238;BME280;23129;49.662;8.448;2023-05-09T00:55:22;100922.72;;;16.98;100.00
37238;BME280;23129;49.662;8.448;2023-05-09T00:57:52;100932.38;;;16.99;100.00
37238;BME280;23129;49.662;8.448;2023-05-09T01:00:20;100926.31;;;16.97;100.00
37238;BME280;23129;49.662;8.448;2023-05-09T01:02:52;100929.84;;;16.96;100.00
37238;BME280;23129;49.662;8.448;2023-05-09T01:05:22;100924.84;;;16.89;100.00
37238;BME280;23129;49.662;8.448;2023-05-09T01:08:09;100913.34;;;16.91;100.00
37238;BME280;23129;49.662;8.448;2023-05-09T01:10:47;100917.28;;;16.82;100.00
37238;BME280;23129;49.662;8.448;2023-05-09T01:13:25;100908.53;;;16.80;100.00
37238;BME280;23129;49.662;8.448;2023-05-09T01:16:01;100914.94;;;16.74;100.00
37238;BME280;23129;49.662;8.448;2023-05-09T01:18:46;100914.28;;;16.69;100.00
37238;BME280;23129;49.662;8.448;2023-05-09T01:21:18;100913.66;;;16.64;100.00
37238;BME280;23129;49.662;8.448;2023-05-09T01:27:21;100904.38;;;16.54;100.00
37238;BME280;23129;49.662;8.448;2023-05-09T01:29:56;100896.72;;;16.48;100.00
37238;BME280;23129;49.662;8.448;2023-05-09T01:32:26;100905.78;;;16.42;100.00
37238;BME280;23129;49.662;8.448;2023-05-09T01:35:00;100907.81;;;16.37;100.00
37238;BME280;23129;49.662;8.448;2023-05-09T01:37:32;100903.63;;;16.31;100.00
37238;BME280;23129;49.662;8.448;2023-05-09T01:40:07;100895.69;;;16.31;100.00
37238;BME280;23129;49.662;8.448;2023-05-09T01:42:41;100881.78;;;16.26;100.00
37238;BME280;23129;49.662;8.448;2023-05-09T01:45:13;100887.22;;;16.23;100.00
37238;BME280;23129;49.662;8.448;2023-05-09T01:47:43;100888.31;;;16.19;100.00
37238;BME280;23129;49.662;8.448;2023-05-09T01:50:12;100887.63;;;16.14;100.00
37238;BME280;23129;49.662;8.448;2023-05-09T01:52:42;100894.78;;;16.12;100.00
37238;BME280;23129;49.662;8.448;2023-05-09T01:55:11;100894.13;;;16.07;100.00
37238;BME280;23129;49.662;8.448;2023-05-09T01:57:41;100895.19;;;16.03;100.00
37238;BME280;23129;49.662;8.448;2023-05-09T02:00:13;100892.53;;;16.03;100.00
37238;BME280;23129;49.662;8.448;2023-05-09T02:02:44;100884.84;;;15.96;100.00
37238;BME280;23129;49.662;8.448;2023-05-09T02:05:14;100887.63;;;15.93;100.00
37238;BME280;23129;49.662;8.448;2023-05-09T02:07:45;100879.84;;;15.90;100.00
37238;BME280;23129;49.662;8.448;2023-05-09T02:10:15;100880.03;;;15.86;100.00
37238;BME280;23129;49.662;8.448;2023-05-09T02:12:44;100880.22;;;15.81;100.00
37238;BME280;23129;49.662;8.448;2023-05-09T02:15:14;100886.50;;;15.79;100.00
37238;BME280;23129;49.662;8.448;2023-05-09T02:17:43;100879.63;;;15.74;100.00
37238;BME280;23129;49.662;8.448;2023-05-09T02:20:12;100881.47;;;15.72;100.00
37238;BME280;23129;49.662;8.448;2023-05-09T02:22:41;100877.13;;;15.71;100.00
37238;BME280;23129;49.662;8.448;2023-05-09T02:25:11;100870.16;;;15.69;100.00
37238;BME280;23129;49.662;8.448;2023-05-09T02:27:44;100878.19;;;15.66;100.00
37238;BME280;23129;49.662;8.448;2023-05-09T02:30:20;100878.25;;;15.64;100.00
37238;BME280;23129;49.662;8.448;2023-05-09T02:32:55;100881.09;;;15.60;100.00
37238;BME280;23129;49.662;8.448;2023-05-09T02:35:26;100878.59;;;15.57;100.00
37238;BME280;23129;49.662;8.448;2023-05-09T02:37:55;100879.53;;;15.56;100.00
37238;BME280;23129;49.662;8.448;2023-05-09T02:40:26;100876.94;;;15.54;100.00
37238;BME280;23129;49.662;8.448;2023-05-09T02:42:55;100879.75;;;15.49;100.00
37238;BME280;23129;49.662;8.448;2023-05-09T02:45:25;100871.03;;;15.47;100.00
37238;BME280;23129;49.662;8.448;2023-05-09T02:47:55;100871.22;;;15.43;100.00
37238;BME280;23129;49.662;8.448;2023-05-09T02:50:23;100868.78;;;15.38;100.00
37238;BME280;23129;49.662;8.448;2023-05-09T02:52:52;100861.09;;;15.32;100.00
37238;BME280;23129;49.662;8.448;2023-05-09T02:55:21;100862.94;;;15.30;100.00
37238;BME280;23129;49.662;8.448;2023-05-09T02:57:49;100859.59;;;15.25;100.00
37238;BME280;23129;49.662;8.448;2023-05-09T03:00:33;100859.72;;;15.22;100.00
37238;BME280;23129;49.662;8.448;2023-05-09T03:03:03;100866.06;;;15.18;100.00
37238;BME280;23129;49.662;8.448;2023-05-09T03:05:32;100866.13;;;15.16;100.00
37238;BME280;23129;49.662;8.448;2023-05-09T03:08:01;100858.31;;;15.13;100.00
37238;BME280;23129;49.662;8.448;2023-05-09T03:10:29;100854.94;;;15.10;100.00
37238;BME280;23129;49.662;8.448;2023-05-09T03:12:58;100848.06;;;15.05;100.00
37238;BME280;23129;49.662;8.448;2023-05-09T03:15:26;100849.91;;;15.03;100.00
37238;BME280;23129;49.662;8.448;2023-05-09T03:17:58;100852.63;;;15.02;100.00
37238;BME280;23129;49.662;8.448;2023-05-09T03:20:27;100847.59;;;14.96;100.00
37238;BME280;23129;49.662;8.448;2023-05-09T03:22:55;100854.63;;;14.95;100.00
37238;BME280;23129;49.662;8.448;2023-05-09T03:25:24;100853.00;;;14.93;100.00
37238;BME280;23129;49.662;8.448;2023-05-09T03:27:53;100853.97;;;14.90;100.00
37238;BME280;23129;49.662;8.448;2023-05-09T03:30:23;100852.22;;;14.89;100.00
37238;BME280;23129;49.662;8.448;2023-05-09T03:32:54;100834.66;;;14.88;100.00
37238;BME280;23129;49.662;8.448;2023-05-09T03:35:24;100832.97;;;14.87;100.00
37238;BME280;23129;49.662;8.448;2023-05-09T03:37:53;100839.22;;;14.84;100.00
37238;BME280;23129;49.662;8.448;2023-05-09T03:40:22;100846.34;;;14.82;100.00
37238;BME280;23129;49.662;8.448;2023-05-09T03:43:01;100841.16;;;14.79;100.00
37238;BME280;23129;49.662;8.448;2023-05-09T03:45:30;100849.91;;;14.81;100.00
37238;BME280;23129;49.662;8.448;2023-05-09T03:47:58;100845.47;;;14.82;100.00
37238;BME280;23129;49.662;8.448;2023-05-09T03:50:28;100841.91;;;14.83;100.00
37238;BME280;23129;49.662;8.448;2023-05-09T03:52:58;100843.88;;;14.78;100.00
37238;BME280;23129;49.662;8.448;2023-05-09T03:55:27;100846.53;;;14.78;100.00
37238;BME280;23129;49.662;8.448;2023-05-09T03:57:56;100838.72;;;14.75;100.00
37238;BME280;23129;49.662;8.448;2023-05-09T04:00:24;100830.81;;;14.75;100.00
37238;BME280;23129;49.662;8.448;2023-05-09T04:03:02;100838.72;;;14.75;100.00
37238;BME280;23129;49.662;8.448;2023-05-09T04:05:39;100830.69;;;14.78;100.00
37238;BME280;23129;49.662;8.448;2023-05-09T04:08:14;100830.72;;;14.76;100.00
37238;BME280;23129;49.662;8.448;2023-05-09T04:10:42;100835.97;;;14.78;100.00
37238;BME280;23129;49.662;8.448;2023-05-09T04:13:11;100840.31;;;14.79;100.00
37238;BME280;23129;49.662;8.448;2023-05-09T04:15:40;100845.47;;;14.82;100.00
37238;BME280;23129;49.662;8.448;2023-05-09T04:18:08;100839.22;;;14.84;100.00
37238;BME280;23129;49.662;8.448;2023-05-09T04:20:38;100838.25;;;14.87;100.00
37238;BME280;23129;49.662;8.448;2023-05-09T04:23:07;100840.81;;;14.89;100.00
37238;BME280;23129;49.662;8.448;2023-05-09T04:25:36;100834.56;;;14.91;100.00
37238;BME280;23129;49.662;8.448;2023-05-09T04:28:05;100841.41;;;14.95;100.00
37238;BME280;23129;49.662;8.448;2023-05-09T04:30:34;100832.34;;;15.02;100.00
37238;BME280;23129;49.662;8.448;2023-05-09T04:33:04;100836.44;;;15.10;100.00
37238;BME280;23129;49.662;8.448;2023-05-09T04:35:33;100845.88;;;15.17;100.00
37238;BME280;23129;49.662;8.448;2023-05-09T04:38:02;100847.44;;;15.21;100.00
37238;BME280;23129;49.662;8.448;2023-05-09T04:40:31;100849.91;;;15.25;100.00
37238;BME280;23129;49.662;8.448;2023-05-09T04:43:00;100836.63;;;15.27;100.00
37238;BME280;23129;49.662;8.448;2023-05-09T04:45:30;100840.81;;;15.33;100.00
37238;BME280;23129;49.662;8.448;2023-05-09T04:48:00;100836.19;;;15.38;100.00
37238;BME280;23129;49.662;8.448;2023-05-09T04:50:28;100832.41;;;15.43;100.00
37238;BME280;23129;49.662;8.448;2023-05-09T04:52:57;100825.16;;;15.48;100.00
37238;BME280;23129;49.662;8.448;2023-05-09T04:55:27;100823.91;;;15.57;100.00
37238;BME280;23129;49.662;8.448;2023-05-09T04:57:56;100827.28;;;15.61;100.00
37238;BME280;23129;49.662;8.448;2023-05-09T05:00:24;100824.38;;;15.67;100.00
37238;BME280;23129;49.662;8.448;2023-05-09T05:02:53;100815.44;;;15.71;100.00
37238;BME280;23129;49.662;8.448;2023-05-09T05:05:24;100811.59;;;15.78;100.00
37238;BME280;23129;49.662;8.448;2023-05-09T05:07:54;100810.31;;;15.87;100.00
37238;BME280;23129;49.662;8.448;2023-05-09T05:10:29;100808.22;;;15.95;100.00
37238;BME280;23129;49.662;8.448;2023-05-09T05:13:06;100804.50;;;15.99;100.00
37238;BME280;23129;49.662;8.448;2023-05-09T05:15:38;100799.78;;;16.06;100.00
37238;BME280;23129;49.662;8.448;2023-05-09T05:18:08;100798.59;;;16.13;100.00
37238;BME280;23129;49.662;8.448;2023-05-09T05:20:36;100799.22;;;16.18;100.00
37238;BME280;23129;49.662;8.448;2023-05-09T05:23:07;100793.50;;;16.27;100.00
37238;BME280;23129;49.662;8.448;2023-05-09T05:25:37;100791.38;;;16.35;100.00
37238;BME280;23129;49.662;8.448;2023-05-09T05:28:06;100796.38;;;16.41;100.00
37238;BME280;23129;49.662;8.448;2023-05-09T05:30:35;100790.88;;;16.46;100.00
37238;BME280;23129;49.662;8.448;2023-05-09T05:33:03;100786.25;;;16.51;100.00
37238;BME280;23129;49.662;8.448;2023-05-09T05:35:32;100783.34;;;16.56;100.00
37238;BME280;23129;49.662;8.448;2023-05-09T05:38:00;100782.34;;;16.58;100.00
37238;BME280;23129;49.662;8.448;2023-05-09T05:40:29;100790.06;;;16.63;100.00
37238;BME280;23129;49.662;8.448;2023-05-09T05:43:02;100782.78;;;16.68;100.00
37238;BME280;23129;49.662;8.448;2023-05-09T05:45:32;100786.06;;;16.73;100.00
37238;BME280;23129;49.662;8.448;2023-05-09T05:48:04;100783.94;;;16.81;100.00
37238;BME280;23129;49.662;8.448;2023-05-09T05:50:32;100794.25;;;16.87;100.00
37238;BME280;23129;49.662;8.448;2023-05-09T05:53:03;100794.09;;;16.91;100.00
37238;BME280;23129;49.662;8.448;2023-05-09T05:55:32;100793.94;;;16.94;100.00
37238;BME280;23129;49.662;8.448;2023-05-09T05:58:02;100798.25;;;16.96;100.00
37238;BME280;23129;49.662;8.448;2023-05-09T06:00:31;100792.84;;;16.98;100.00
37238;BME280;23129;49.662;8.448;2023-05-09T06:03:04;100797.78;;;17.05;100.00
37238;BME280;23129;49.662;8.448;2023-05-09T06:05:50;100797.56;;;17.10;100.00
37238;BME280;23129;49.662;8.448;2023-05-09T06:08:19;100791.88;;;17.18;100.00
37238;BME280;23129;49.662;8.448;2023-05-09T06:10:47;100781.81;;;17.24;100.00
37238;BME280;23129;49.662;8.448;2023-05-09T06:13:17;100782.31;;;17.32;100.00
37238;BME280;23129;49.662;8.448;2023-05-09T06:15:53;100782.75;;;17.41;100.00
37238;BME280;23129;49.662;8.448;2023-05-09T06:18:28;100770.13;;;17.46;100.00
37238;BME280;23129;49.662;8.448;2023-05-09T06:20:57;100771.66;;;17.50;100.00
37238;BME280;23129;49.662;8.448;2023-05-09T06:23:25;100770.44;;;17.57;100.00
37238;BME280;23129;49.662;8.448;2023-05-09T06:25:54;100768.25;;;17.65;100.00
37238;BME280;23129;49.662;8.448;2023-05-09T06:28:25;100768.69;;;17.73;100.00
37238;BME280;23129;49.662;8.448;2023-05-09T06:30:54;100764.97;;;17.77;100.00
37238;BME280;23129;49.662;8.448;2023-05-09T06:33:23;100764.81;;;17.81;100.00
37238;BME280;23129;49.662;8.448;2023-05-09T06:35:51;100761.22;;;17.82;100.00
37238;BME280;23129;49.662;8.448;2023-05-09T06:38:20;100765.41;;;17.86;100.00
37238;BME280;23129;49.662;8.448;2023-05-09T06:40:48;100766.03;;;17.91;100.00
37238;BME280;23129;49.662;8.448;2023-05-09T06:43:17;100757.91;;;17.94;100.00
37238;BME280;23129;49.662;8.448;2023-05-09T06:45:47;100764.00;;;17.96;100.00
37238;BME280;23129;49.662;8.448;2023-05-09T06:48:15;100755.25;;;17.94;100.00
37238;BME280;23129;49.662;8.448;2023-05-09T06:50:44;100751.81;;;17.92;100.00
37238;BME280;23129;49.662;8.448;2023-05-09T06:53:12;100750.09;;;17.91;100.00
37238;BME280;23129;49.662;8.448;2023-05-09T06:55:41;100745.59;;;17.93;100.00
37238;BME280;23129;49.662;8.448;2023-05-09T06:58:09;100740.91;;;17.98;100.00
37238;BME280;23129;49.662;8.448;2023-05-09T07:00:38;100729.94;;;18.04;100.00
37238;BME280;23129;49.662;8.448;2023-05-09T07:03:08;100729.63;;;18.10;100.00
37238;BME280;23129;49.662;8.448;2023-05-09T07:05:38;100728.50;;;18.14;100.00
37238;BME280;23129;49.662;8.448;2023-05-09T07:08:06;100721.13;;;18.19;100.00
37238;BME280;23129;49.662;8.448;2023-05-09T07:10:35;100721.38;;;18.31;100.00
37238;BME280;23129;49.662;8.448;2023-05-09T07:13:05;100730.56;;;18.41;100.00
37238;BME280;23129;49.662;8.448;2023-05-09T07:15:34;100722.25;;;18.47;100.00
37238;BME280;23129;49.662;8.448;2023-05-09T07:18:10;100718.13;;;18.57;100.00
37238;BME280;23129;49.662;8.448;2023-05-09T07:20:39;100716.06;;;18.62;100.00
37238;BME280;23129;49.662;8.448;2023-05-09T07:23:07;100711.19;;;18.70;100.00
37238;BME280;23129;49.662;8.448;2023-05-09T07:25:36;100707.34;;;18.76;100.00
37238;BME280;23129;49.662;8.448;2023-05-09T07:28:05;100698.56;;;18.90;100.00
37238;BME280;23129;49.662;8.448;2023-05-09T07:30:33;100691.84;;;18.99;100.00
37238;BME280;23129;49.662;8.448;2023-05-09T07:33:02;100695.97;;;19.19;100.00
37238;BME280;23129;49.662;8.448;2023-05-09T07:35:31;100686.50;;;19.43;100.00
37238;BME280;23129;49.662;8.448;2023-05-09T07:38:00;100686.44;;;19.45;100.00
37238;BME280;23129;49.662;8.448;2023-05-09T07:40:28;100690.03;;;19.44;100.00
37238;BME280;23129;49.662;8.448;2023-05-09T07:42:58;100679.75;;;19.37;100.00
37238;BME280;23129;49.662;8.448;2023-05-09T07:45:26;100673.69;;;19.35;100.00
37238;BME280;23129;49.662;8.448;2023-05-09T07:47:54;100669.22;;;19.36;100.00
37238;BME280;23129;49.662;8.448;2023-05-09T07:50:23;100670.75;;;19.40;100.00
37238;BME280;23129;49.662;8.448;2023-05-09T07:52:52;100673.97;;;19.45;100.00
37238;BME280;23129;49.662;8.448;2023-05-09T07:55:21;100678.34;;;19.46;100.00
37238;BME280;23129;49.662;8.448;2023-05-09T07:57:50;100668.66;;;19.45;100.00
37238;BME280;23129;49.662;8.448;2023-05-09T08:00:19;100667.63;;;19.48;100.00
37238;BME280;23129;49.662;8.448;2023-05-09T08:02:50;100670.00;;;19.52;100.00
37238;BME280;23129;49.662;8.448;2023-05-09T08:05:19;100655.56;;;19.56;100.00
37238;BME280;23129;49.662;8.448;2023-05-09T08:07:51;100647.78;;;19.68;100.00
37238;BME280;23129;49.662;8.448;2023-05-09T08:10:20;100653.28;;;19.79;100.00
37238;BME280;23129;49.662;8.448;2023-05-09T08:12:49;100653.84;;;19.84;100.00
37238;BME280;23129;49.662;8.448;2023-05-09T08:15:18;100638.75;;;19.84;100.00
37238;BME280;23129;49.662;8.448;2023-05-09T08:17:47;100634.63;;;19.93;100.00
37238;BME280;23129;49.662;8.448;2023-05-09T08:20:16;100637.34;;;20.06;100.00
37238;BME280;23129;49.662;8.448;2023-05-09T08:22:45;100627.16;;;20.13;100.00
37238;BME280;23129;49.662;8.448;2023-05-09T08:25:14;100625.25;;;20.15;100.00
37238;BME280;23129;49.662;8.448;2023-05-09T08:27:44;100622.31;;;20.19;100.00
37238;BME280;23129;49.662;8.448;2023-05-09T08:30:14;100617.31;;;20.27;100.00
37238;BME280;23129;49.662;8.448;2023-05-09T08:32:42;100619.84;;;20.43;100.00
37238;BME280;23129;49.662;8.448;2023-05-09T08:35:11;100621.72;;;20.56;100.00
37238;BME280;23129;49.662;8.448;2023-05-09T08:37:40;100608.63;;;20.65;100.00
37238;BME280;23129;49.662;8.448;2023-05-09T08:40:10;100623.66;;;20.66;100.00
37238;BME280;23129;49.662;8.448;2023-05-09T08:42:43;100617.59;;;20.77;100.00
37238;BME280;23129;49.662;8.448;2023-05-09T08:45:13;100613.34;;;20.87;100.00
37238;BME280;23129;49.662;8.448;2023-05-09T08:47:43;100608.56;;;20.92;100.00
37238;BME280;23129;49.662;8.448;2023-05-09T08:50:13;100608.13;;;20.98;100.00
37238;BME280;23129;49.662;8.448;2023-05-09T08:52:43;100611.66;;;21.12;100.00
37238;BME280;23129;49.662;8.448;2023-05-09T08:55:13;100598.22;;;21.26;100.00
37238;BME280;23129;49.662;8.448;2023-05-09T08:57:43;100596.31;;;21.41;100.00
37238;BME280;23129;49.662;8.448;2023-05-09T09:00:12;100594.59;;;21.53;100.00
37238;BME280;23129;49.662;8.448;2023-05-09T09:02:45;100589.56;;;21.61;100.00
37238;BME280;23129;49.662;8.448;2023-05-09T09:05:15;100590.38;;;21.74;100.00
37238;BME280;23129;49.662;8.448;2023-05-09T09:08:08;100592.91;;;21.88;100.00
37238;BME280;23129;49.662;8.448;2023-05-09T09:10:40;100589.47;;;21.86;100.00
37238;BME280;23129;49.662;8.448;2023-05-09T09:13:12;100589.25;;;21.89;100.00
37238;BME280;23129;49.662;8.448;2023-05-09T09:15:44;100584.75;;;22.03;100.00
37238;BME280;23129;49.662;8.448;2023-05-09T09:18:19;100569.28;;;22.19;100.00
37238;BME280;23129;49.662;8.448;2023-05-09T09:20:54;100577.50;;;22.16;100.00
37238;BME280;23129;49.662;8.448;2023-05-09T09:23:25;100567.63;;;22.05;100.00
37238;BME280;23129;49.662;8.448;2023-05-09T09:25:57;100568.25;;;21.85;100.00
37238;BME280;23129;49.662;8.448;2023-05-09T09:28:27;100570.47;;;21.54;100.00
37238;BME280;23129;49.662;8.448;2023-05-09T09:30:56;100561.94;;;21.24;100.00
37238;BME280;23129;49.662;8.448;2023-05-09T09:33:25;100557.88;;;21.05;100.00
37238;BME280;23129;49.662;8.448;2023-05-09T09:35:55;100567.28;;;20.98;100.00
37238;BME280;23129;49.662;8.448;2023-05-09T09:38:24;100553.00;;;20.86;100.00
37238;BME280;23129;49.662;8.448;2023-05-09T09:40:54;100553.28;;;20.82;100.00
37238;BME280;23129;49.662;8.448;2023-05-09T09:43:31;100543.38;;;20.84;100.00
37238;BME280;23129;49.662;8.448;2023-05-09T09:46:01;100541.06;;;20.79;100.00
37238;BME280;23129;49.662;8.448;2023-05-09T09:48:31;100545.00;;;20.86;100.00
37238;BME280;23129;49.662;8.448;2023-05-09T09:51:08;100533.81;;;20.94;100.00
37238;BME280;23129;49.662;8.448;2023-05-09T09:53:41;100534.44;;;20.97;100.00
37238;BME280;23129;49.662;8.448;2023-05-09T09:56:10;100532.06;;;20.93;100.00
37238;BME280;23129;49.662;8.448;2023-05-09T09:58:40;100530.78;;;20.98;100.00
37238;BME280;23129;49.662;8.448;2023-05-09T10:01:09;100530.91;;;20.97;100.00
37238;BME280;23129;49.662;8.448;2023-05-09T10:03:42;100521.81;;;21.00;100.00
37238;BME280;23129;49.662;8.448;2023-05-09T10:06:13;100521.94;;;20.98;100.00
37238;BME280;23129;49.662;8.448;2023-05-09T10:08:44;100520.78;;;20.89;100.00
37238;BME280;23129;49.662;8.448;2023-05-09T10:11:15;100525.28;;;20.76;100.00
37238;BME280;23129;49.662;8.448;2023-05-09T10:13:44;100514.06;;;20.71;100.00
37238;BME280;23129;49.662;8.448;2023-05-09T10:16:13;100509.16;;;20.65;100.00
37238;BME280;23129;49.662;8.448;2023-05-09T10:18:42;100508.41;;;20.63;100.00
37238;BME280;23129;49.662;8.448;2023-05-09T10:21:14;100503.19;;;20.61;100.00
37238;BME280;23129;49.662;8.448;2023-05-09T10:23:45;100501.16;;;20.65;100.00
37238;BME280;23129;49.662;8.448;2023-05-09T10:26:23;100489.09;;;20.72;100.00
37238;BME280;23129;49.662;8.448;2023-05-09T10:28:57;100483.25;;;20.80;100.00
37238;BME280;23129;49.662;8.448;2023-05-09T10:31:28;100480.88;;;20.88;100.00
37238;BME280;23129;49.662;8.448;2023-05-09T10:34:02;100476.28;;;21.03;100.00
37238;BME280;23129;49.662;8.448;2023-05-09T10:36:32;100469.97;;;21.16;100.00
37238;BME280;23129;49.662;8.448;2023-05-09T10:39:02;100450.31;;;21.30;100.00
37238;BME280;23129;49.662;8.448;2023-05-09T10:41:30;100453.75;;;21.56;100.00
37238;BME280;23129;49.662;8.448;2023-05-09T10:44:01;100448.34;;;21.93;100.00
37238;BME280;23129;49.662;8.448;2023-05-09T10:46:30;100443.50;;;22.33;100.00
37238;BME280;23129;49.662;8.448;2023-05-09T10:48:58;100430.28;;;22.88;100.00
37238;BME280;23129;49.662;8.448;2023-05-09T10:51:27;100436.50;;;23.34;100.00
37238;BME280;23129;49.662;8.448;2023-05-09T10:53:59;100428.91;;;23.50;100.00
37238;BME280;23129;49.662;8.448;2023-05-09T10:56:30;100425.13;;;23.53;99.15
37238;BME280;23129;49.662;8.448;2023-05-09T10:59:00;100422.81;;;23.48;99.77
37238;BME280;23129;49.662;8.448;2023-05-09T11:01:31;100422.56;;;23.51;100.00
37238;BME280;23129;49.662;8.448;2023-05-09T11:04:08;100401.34;;;23.71;100.00
37238;BME280;23129;49.662;8.448;2023-05-09T11:06:48;100398.50;;;24.04;100.00
37238;BME280;23129;49.662;8.448;2023-05-09T11:09:32;100391.03;;;24.29;100.00
37238;BME280;23129;49.662;8.448;2023-05-09T11:12:08;100383.63;;;24.63;100.00
37238;BME280;23129;49.662;8.448;2023-05-09T11:14:43;100383.00;;;24.90;99.09
37238;BME280;23129;49.662;8.448;2023-05-09T11:17:13;100369.13;;;24.85;98.63
37238;BME280;23129;49.662;8.448;2023-05-09T11:20:07;100377.47;;;24.92;100.00
37238;BME280;23129;49.662;8.448;2023-05-09T11:22:41;100370.97;;;24.85;98.94
37238;BME280;23129;49.662;8.448;2023-05-09T11:25:11;100377.22;;;24.95;99.20
37238;BME280;23129;49.662;8.448;2023-05-09T11:27:43;100366.94;;;25.10;98.42
37238;BME280;23129;49.662;8.448;2023-05-09T11:30:15;100361.75;;;25.18;96.59
37238;BME280;23129;49.662;8.448;2023-05-09T11:32:45;100359.88;;;25.09;93.90
37238;BME280;23129;49.662;8.448;2023-05-09T11:35:16;100352.19;;;25.25;93.88
37238;BME280;23129;49.662;8.448;2023-05-09T11:37:47;100353.31;;;25.32;91.66
37238;BME280;23129;49.662;8.448;2023-05-09T11:40:18;100345.94;;;25.24;92.68
37238;BME280;23129;49.662;8.448;2023-05-09T11:42:48;100346.22;;;25.21;92.88
37238;BME280;23129;49.662;8.448;2023-05-09T11:45:25;100345.47;;;25.10;92.36
37238;BME280;23129;49.662;8.448;2023-05-09T11:47:54;100341.34;;;24.96;93.77
37238;BME280;23129;49.662;8.448;2023-05-09T11:50:23;100328.63;;;24.88;94.28
37238;BME280;23129;49.662;8.448;2023-05-09T11:52:53;100334.25;;;24.85;94.11
37238;BME280;23129;49.662;8.448;2023-05-09T11:55:21;100325.34;;;24.75;92.15
37238;BME280;23129;49.662;8.448;2023-05-09T11:57:53;100320.34;;;24.60;89.92
37238;BME280;23129;49.662;8.448;2023-05-09T12:00:24;100309.03;;;24.47;91.32
37238;BME280;23129;49.662;8.448;2023-05-09T12:02:53;100317.72;;;24.40;90.14
37238;BME280;23129;49.662;8.448;2023-05-09T12:05:22;100315.41;;;24.35;91.18
37238;BME280;23129;49.662;8.448;2023-05-09T12:07:51;100315.41;;;24.35;90.64
37238;BME280;23129;49.662;8.448;2023-05-09T12:10:20;100317.53;;;24.31;89.84
37238;BME280;23129;49.662;8.448;2023-05-09T12:12:51;100316.06;;;24.18;87.11
37238;BME280;23129;49.662;8.448;2023-05-09T12:15:23;100303.22;;;24.11;87.54
37238;BME280;23129;49.662;8.448;2023-05-09T12:18:01;100301.81;;;24.17;87.77
37238;BME280;23129;49.662;8.448;2023-05-09T12:20:40;100289.69;;;24.23;88.86
37238;BME280;23129;49.662;8.448;2023-05-09T12:23:10;100295.84;;;24.13;87.88
37238;BME280;23129;49.662;8.448;2023-05-09T12:25:39;100283.25;;;24.04;86.51
37238;BME280;23129;49.662;8.448;2023-05-09T12:28:07;100285.91;;;23.95;88.59
37238;BME280;23129;49.662;8.448;2023-05-09T12:30:37;100272.56;;;23.83;87.90
37238;BME280;23129;49.662;8.448;2023-05-09T12:33:05;100271.34;;;23.66;87.43
37238;BME280;23129;49.662;8.448;2023-05-09T12:35:38;100272.13;;;23.57;88.46
37238;BME280;23129;49.662;8.448;2023-05-09T12:38:06;100258.53;;;23.49;89.54
37238;BME280;23129;49.662;8.448;2023-05-09T12:40:35;100258.06;;;23.44;89.97
37238;BME280;23129;49.662;8.448;2023-05-09T12:43:05;100248.88;;;23.37;88.90
37238;BME280;23129;49.662;8.448;2023-05-09T12:45:37;100237.69;;;23.32;88.10
37238;BME280;23129;49.662;8.448;2023-05-09T12:48:07;100236.69;;;23.33;87.63
37238;BME280;23129;49.662;8.448;2023-05-09T12:50:38;100232.81;;;23.37;87.03
37238;BME280;23129;49.662;8.448;2023-05-09T12:53:06;100233.44;;;23.50;86.41
37238;BME280;23129;49.662;8.448;2023-05-09T12:55:38;100233.59;;;23.69;87.31
37238;BME280;23129;49.662;8.448;2023-05-09T12:58:07;100226.84;;;23.75;86.29
37238;BME280;23129;49.662;8.448;2023-05-09T13:00:46;100209.47;;;23.90;87.67